createdAt,value
2023-05-11T00:02:13.666Z,19.42
2023-05-11T00:04:40.395Z,20.25
2023-05-11T00:07:09.130Z,19.35
2023-05-11T00:09:35.872Z,18.85
2023-05-11T00:12:02.826Z,20.23
2023-05-11T00:14:29.450Z,18.70
2023-05-11T00:16:56.031Z,18.83
2023-05-11T00:19:22.595Z,19.85
2023-05-11T00:21:49.227Z,20.33
2023-05-11T00:24:15.825Z,19.40
2023-05-11T00:26:42.669Z,19.75
2023-05-11T00:29:09.332Z,19.33
2023-05-11T00:31:36.002Z,20.52
2023-05-11T00:34:02.776Z,20.60
2023-05-11T00:36:29.381Z,20.17
2023-05-11T00:38:56.381Z,21.67
2023-05-11T00:41:23.534Z,20.80
2023-05-11T00:43:50.144Z,22.77
2023-05-11T00:46:17.440Z,20.35
2023-05-11T00:48:44.273Z,22.00
2023-05-11T00:51:12.213Z,20.60
2023-05-11T00:53:38.968Z,21.17
2023-05-11T00:56:06.037Z,20.10
2023-05-11T00:58:33.030Z,21.30
2023-05-11T01:00:59.700Z,20.75
2023-05-11T01:03:26.690Z,19.85
2023-05-11T01:06:05.506Z,20.27
2023-05-11T01:08:54.067Z,19.35
2023-05-11T01:11:26.443Z,21.40
2023-05-11T01:13:56.974Z,20.90
2023-05-11T01:16:26.523Z,20.27
2023-05-11T01:19:01.554Z,20.75
2023-05-11T01:21:35.609Z,20.42
2023-05-11T01:24:23.915Z,21.13
2023-05-11T01:27:23.551Z,21.95
2023-05-11T01:30:22.015Z,21.52
2023-05-11T01:32:48.611Z,22.80
2023-05-11T01:35:19.164Z,22.08
2023-05-11T01:37:49.525Z,23.67
2023-05-11T01:40:18.226Z,23.92
2023-05-11T01:42:48.479Z,22.08
2023-05-11T01:45:28.848Z,24.77
2023-05-11T01:47:56.183Z,24.58
2023-05-11T01:50:24.572Z,22.33
2023-05-11T01:52:51.885Z,20.80
2023-05-11T01:55:21.283Z,21.15
2023-05-11T01:57:51.954Z,23.20
2023-05-11T02:00:19.240Z,21.75
2023-05-11T02:02:47.772Z,22.58
2023-05-11T02:05:22.640Z,22.40
2023-05-11T02:07:51.332Z,22.05
2023-05-11T02:10:19.174Z,22.55
2023-05-11T02:12:46.799Z,21.45
2023-05-11T02:15:15.728Z,20.60
2023-05-11T02:17:43.419Z,21.60
2023-05-11T02:20:18.574Z,20.73
2023-05-11T02:25:31.177Z,21.10
2023-05-11T02:28:00.156Z,21.38
2023-05-11T02:30:28.767Z,21.92
2023-05-11T02:32:59.138Z,21.95
2023-05-11T02:35:28.811Z,22.60
2023-05-11T02:37:58.177Z,22.77
2023-05-11T02:40:42.807Z,22.75
2023-05-11T02:43:12.591Z,20.90
2023-05-11T02:45:46.133Z,22.27
2023-05-11T02:48:27.615Z,23.55
2023-05-11T02:50:56.223Z,23.85
2023-05-11T02:53:28.444Z,23.23
2023-05-11T02:55:55.851Z,24.27
2023-05-11T02:58:23.195Z,23.02
2023-05-11T03:00:58.661Z,23.75
2023-05-11T03:03:26.943Z,22.92
2023-05-11T03:05:53.646Z,23.85
2023-05-11T03:08:20.253Z,23.98
2023-05-11T03:10:47.028Z,24.98
2023-05-11T03:13:14.052Z,23.05
2023-05-11T03:15:41.140Z,23.95
2023-05-11T03:18:11.066Z,23.40
2023-05-11T03:20:39.304Z,22.00
2023-05-11T03:23:06.754Z,23.08
2023-05-11T03:25:33.688Z,22.65
2023-05-11T03:28:00.813Z,23.77
2023-05-11T03:30:30.186Z,24.17
2023-05-11T03:32:57.853Z,23.40
2023-05-11T03:35:27.340Z,23.38
2023-05-11T03:37:55.093Z,24.23
2023-05-11T03:40:23.531Z,22.55
2023-05-11T03:42:55.411Z,22.90
2023-05-11T03:45:23.140Z,23.88
2023-05-11T03:47:50.636Z,24.70
2023-05-11T03:50:17.540Z,22.70
2023-05-11T03:52:44.447Z,24.40
2023-05-11T03:55:11.514Z,23.85
2023-05-11T03:57:38.690Z,25.58
2023-05-11T04:00:08.020Z,24.85
2023-05-11T04:02:41.866Z,25.17
2023-05-11T04:05:12.460Z,25.42
2023-05-11T04:07:40.542Z,25.48
2023-05-11T04:10:07.856Z,25.50
2023-05-11T04:12:34.425Z,25.95
2023-05-11T04:15:01.067Z,25.45
2023-05-11T04:17:27.712Z,26.55
2023-05-11T04:19:54.307Z,28.65
2023-05-11T04:22:21.098Z,27.52
2023-05-11T04:24:47.745Z,28.30
2023-05-11T04:27:16.473Z,28.48
2023-05-11T04:29:43.193Z,28.45
2023-05-11T04:32:10.329Z,29.27
2023-05-11T04:34:37.077Z,29.88
2023-05-11T04:37:07.337Z,28.33
2023-05-11T04:39:35.468Z,28.25
2023-05-11T04:42:02.331Z,30.17
2023-05-11T04:44:29.586Z,29.00
2023-05-11T04:46:56.635Z,26.67
2023-05-11T04:49:23.362Z,27.92
2023-05-11T04:51:50.438Z,26.90
2023-05-11T04:54:17.575Z,28.70
2023-05-11T04:56:44.612Z,29.02
2023-05-11T04:59:11.462Z,27.23
2023-05-11T05:01:38.236Z,29.88
2023-05-11T05:04:05.033Z,29.08
2023-05-11T05:06:32.158Z,29.50
2023-05-11T05:08:58.804Z,29.73
2023-05-11T05:11:25.530Z,29.08
2023-05-11T05:13:53.180Z,31.77
2023-05-11T05:16:19.825Z,29.25
2023-05-11T05:18:46.806Z,31.98
2023-05-11T05:21:14.622Z,29.38
2023-05-11T05:23:41.300Z,29.15
2023-05-11T05:26:07.941Z,28.75
2023-05-11T05:28:36.522Z,27.02
2023-05-11T05:31:04.262Z,28.05
2023-05-11T05:33:31.018Z,28.17
2023-05-11T05:35:57.718Z,25.20
2023-05-11T05:38:25.306Z,27.33
2023-05-11T05:40:52.034Z,25.73
2023-05-11T05:43:18.712Z,24.38
2023-05-11T05:45:45.897Z,26.33
2023-05-11T05:48:12.568Z,25.50
2023-05-11T05:50:39.322Z,24.13
2023-05-11T05:53:07.445Z,23.17
2023-05-11T05:55:35.810Z,22.27
2023-05-11T05:58:04.452Z,21.48
2023-05-11T06:00:51.831Z,19.55
2023-05-11T06:03:18.581Z,19.92
2023-05-11T06:05:45.231Z,19.38
2023-05-11T06:08:12.144Z,17.10
2023-05-11T06:10:39.589Z,18.75
2023-05-11T06:13:08.285Z,16.63
2023-05-11T06:15:35.606Z,16.27
2023-05-11T06:18:09.395Z,17.23
2023-05-11T06:20:36.136Z,17.20
2023-05-11T06:23:05.165Z,15.23
2023-05-11T06:25:37.413Z,15.13
2023-05-11T06:28:05.126Z,15.43
2023-05-11T06:30:33.430Z,14.57
2023-05-11T06:33:01.193Z,15.02
2023-05-11T06:35:29.598Z,15.88
2023-05-11T06:38:00.134Z,15.70
2023-05-11T06:40:26.907Z,15.43
2023-05-11T06:42:53.685Z,14.02
2023-05-11T06:45:20.388Z,15.07
2023-05-11T06:47:47.393Z,12.38
2023-05-11T06:50:14.072Z,13.27
2023-05-11T06:52:40.672Z,13.68
2023-05-11T06:55:07.633Z,15.18
2023-05-11T06:57:34.280Z,14.63
2023-05-11T07:00:00.865Z,14.10
2023-05-11T07:02:27.926Z,14.32
2023-05-11T07:04:54.596Z,15.25
2023-05-11T07:07:22.663Z,15.27
2023-05-11T07:09:49.322Z,14.98
2023-05-11T07:12:15.983Z,13.00
2023-05-11T07:14:42.646Z,14.63
2023-05-11T07:17:09.282Z,10.95
2023-05-11T07:19:35.924Z,10.75
2023-05-11T07:22:02.628Z,10.70
2023-05-11T07:24:29.257Z,10.65
2023-05-11T07:26:57.306Z,11.20
2023-05-11T07:29:23.945Z,10.98
2023-05-11T07:31:50.616Z,11.15
2023-05-11T07:34:17.308Z,10.07
2023-05-11T07:36:43.969Z,10.18
2023-05-11T07:39:10.900Z,9.75
2023-05-11T07:41:37.676Z,8.80
2023-05-11T07:44:04.350Z,8.85
2023-05-11T07:46:31.032Z,8.75
2023-05-11T07:49:13.599Z,9.13
2023-05-11T07:51:42.107Z,8.93
2023-05-11T07:54:08.760Z,8.43
2023-05-11T07:56:35.389Z,7.72
2023-05-11T07:59:02.067Z,8.15
2023-05-11T08:01:28.708Z,7.45
2023-05-11T08:03:55.396Z,7.13
2023-05-11T08:06:22.078Z,7.75
2023-05-11T08:08:48.667Z,6.55
2023-05-11T08:11:15.504Z,5.97
2023-05-11T08:13:42.128Z,5.88
2023-05-11T08:16:08.916Z,5.53
2023-05-11T08:18:35.592Z,5.60
2023-05-11T08:21:02.210Z,5.38
2023-05-11T08:23:28.823Z,5.38
2023-05-11T08:25:55.931Z,5.60
2023-05-11T08:28:22.833Z,5.72
2023-05-11T08:30:55.810Z,6.07
2023-05-11T08:33:36.650Z,5.13
2023-05-11T08:36:04.983Z,5.18
2023-05-11T08:38:31.585Z,6.97
2023-05-11T08:40:58.408Z,7.38
2023-05-11T08:43:26.402Z,7.40
2023-05-11T08:45:57.326Z,6.20
2023-05-11T08:48:23.996Z,6.53
2023-05-11T08:50:50.918Z,5.47
2023-05-11T08:53:17.541Z,6.45
2023-05-11T08:55:45.228Z,5.25
2023-05-11T08:58:14.992Z,7.20
2023-05-11T09:00:42.009Z,7.75
2023-05-11T09:03:09.200Z,6.93
2023-05-11T09:05:36.074Z,10.52
2023-05-11T09:08:04.304Z,10.32
2023-05-11T09:10:30.919Z,11.43
2023-05-11T09:12:57.486Z,9.85
2023-05-11T09:15:24.130Z,9.23
2023-05-11T09:17:50.813Z,9.50
2023-05-11T09:20:26.978Z,10.32
2023-05-11T09:22:54.537Z,11.73
2023-05-11T09:25:21.909Z,11.38
2023-05-11T09:27:48.643Z,11.38
2023-05-11T09:30:23.687Z,12.23
2023-05-11T09:32:55.093Z,13.18
2023-05-11T09:35:26.796Z,12.73
2023-05-11T09:38:05.174Z,11.65
2023-05-11T09:40:39.667Z,13.32
2023-05-11T09:43:18.494Z,14.13
2023-05-11T09:45:49.839Z,13.35
2023-05-11T09:48:16.491Z,12.55
2023-05-11T09:50:43.407Z,9.77
2023-05-11T09:53:10.025Z,9.52
2023-05-11T09:55:36.754Z,8.75
2023-05-11T09:58:04.518Z,8.07
2023-05-11T10:00:31.893Z,6.72
2023-05-11T10:03:06.976Z,7.30
2023-05-11T10:05:35.728Z,8.10
2023-05-11T10:08:04.091Z,7.40
2023-05-11T10:10:32.207Z,7.82
2023-05-11T10:13:00.806Z,8.20
2023-05-11T10:15:29.084Z,7.63
2023-05-11T10:17:58.156Z,7.40
2023-05-11T10:20:26.496Z,8.18
2023-05-11T10:22:55.335Z,7.05
2023-05-11T10:25:22.933Z,7.95
2023-05-11T10:27:50.414Z,7.88
2023-05-11T10:30:17.691Z,7.82
2023-05-11T10:32:47.039Z,7.50
2023-05-11T10:35:13.936Z,6.47
2023-05-11T10:37:42.621Z,7.65
2023-05-11T10:40:10.175Z,4.10
2023-05-11T10:42:47.854Z,4.50
2023-05-11T10:45:22.973Z,4.18
2023-05-11T10:47:55.625Z,5.47
2023-05-11T10:51:05.589Z,5.90
2023-05-11T10:54:28.771Z,5.75
2023-05-11T10:57:23.111Z,5.80
2023-05-11T11:00:10.716Z,7.45
2023-05-11T11:02:38.173Z,7.30
2023-05-11T11:05:08.069Z,7.68
2023-05-11T11:08:00.216Z,7.00
2023-05-11T11:10:34.375Z,7.28
2023-05-11T11:13:08.817Z,7.40
2023-05-11T11:15:53.933Z,7.82
2023-05-11T11:18:27.480Z,6.25
2023-05-11T11:20:58.549Z,7.05
2023-05-11T11:23:44.671Z,6.88
2023-05-11T11:26:16.624Z,7.35
2023-05-11T11:29:06.197Z,7.43
2023-05-11T11:31:34.275Z,6.93
2023-05-11T11:34:29.090Z,7.30
2023-05-11T11:36:55.817Z,7.65
2023-05-11T11:39:22.959Z,7.88
2023-05-11T11:42:28.162Z,7.00
2023-05-11T11:45:28.096Z,7.82
2023-05-11T11:48:09.252Z,5.68
2023-05-11T11:50:35.991Z,5.05
2023-05-11T11:53:05.526Z,6.10
2023-05-11T11:55:51.140Z,5.65
2023-05-11T11:59:00.015Z,4.85
2023-05-11T12:01:28.926Z,4.45
2023-05-11T12:04:05.040Z,4.63
2023-05-11T12:06:38.970Z,4.65
2023-05-11T12:09:05.957Z,4.63
2023-05-11T12:11:33.113Z,3.70
2023-05-11T12:14:00.706Z,3.78
2023-05-11T12:16:28.389Z,3.17
2023-05-11T12:18:59.191Z,3.75
2023-05-11T12:21:29.270Z,3.95
2023-05-11T12:23:57.832Z,3.58
2023-05-11T12:26:26.373Z,2.97
2023-05-11T12:29:15.677Z,3.50
2023-05-11T12:31:44.282Z,3.15
2023-05-11T12:34:16.388Z,2.92
2023-05-11T12:36:46.610Z,2.70
2023-05-11T12:39:21.066Z,2.60
2023-05-11T12:41:52.604Z,2.50
2023-05-11T12:44:20.666Z,2.50
2023-05-11T12:46:48.020Z,2.50
2023-05-11T12:49:26.318Z,2.45
2023-05-11T12:51:59.455Z,2.58
2023-05-11T12:54:30.115Z,3.08
2023-05-11T12:56:57.396Z,2.65
2023-05-11T12:59:35.009Z,2.65
2023-05-11T13:02:16.482Z,3.05
2023-05-11T13:04:43.596Z,3.83
2023-05-11T13:07:11.261Z,3.80
2023-05-11T13:09:39.260Z,4.88
2023-05-11T13:12:20.817Z,4.78
2023-05-11T13:14:49.117Z,4.93
2023-05-11T13:17:32.503Z,4.15
2023-05-11T13:20:26.311Z,3.63
2023-05-11T13:23:10.088Z,4.15
2023-05-11T13:25:46.591Z,3.60
2023-05-11T13:28:18.145Z,4.15
2023-05-11T13:30:45.642Z,4.40
2023-05-11T13:33:12.459Z,4.28
2023-05-11T13:35:46.507Z,4.10
2023-05-11T13:38:13.216Z,4.50
2023-05-11T13:40:40.043Z,3.92
2023-05-11T13:43:08.007Z,3.78
2023-05-11T13:45:36.318Z,3.92
2023-05-11T13:48:03.586Z,3.28
2023-05-11T13:50:30.443Z,3.45
2023-05-11T13:52:57.104Z,3.97
2023-05-11T13:55:23.723Z,3.67
2023-05-11T13:57:51.364Z,2.95
2023-05-11T14:00:19.792Z,3.00
2023-05-11T14:02:48.274Z,3.17
2023-05-11T14:05:15.073Z,3.20
2023-05-11T14:07:47.122Z,3.00
2023-05-11T14:10:16.478Z,2.83
2023-05-11T14:12:44.975Z,3.05
2023-05-11T14:15:11.868Z,3.15
2023-05-11T14:17:39.085Z,2.85
2023-05-11T14:20:06.541Z,3.30
2023-05-11T14:22:33.272Z,3.00
2023-05-11T14:25:01.922Z,2.95
2023-05-11T14:27:31.754Z,3.25
2023-05-11T14:30:00.875Z,3.25
2023-05-11T14:32:27.660Z,3.55
2023-05-11T14:34:54.252Z,3.00
2023-05-11T14:37:20.859Z,3.20
2023-05-11T14:39:47.486Z,3.67
2023-05-11T14:42:14.152Z,3.55
2023-05-11T14:44:41.631Z,3.00
2023-05-11T14:47:08.584Z,3.47
2023-05-11T14:49:35.282Z,3.90
2023-05-11T14:52:01.967Z,3.80
2023-05-11T14:54:28.586Z,4.13
2023-05-11T14:56:57.026Z,4.50
2023-05-11T14:59:24.898Z,4.30
2023-05-11T15:01:51.633Z,4.93
2023-05-11T15:04:19.464Z,4.47
2023-05-11T15:06:46.708Z,4.50
2023-05-11T15:09:13.604Z,3.97
2023-05-11T15:11:43.436Z,3.88
2023-05-11T15:14:10.595Z,4.50
2023-05-11T15:16:37.572Z,4.70
2023-05-11T15:19:05.885Z,4.05
2023-05-11T15:21:32.563Z,4.50
2023-05-11T15:23:59.223Z,4.20
2023-05-11T15:26:25.966Z,3.90
2023-05-11T15:28:52.615Z,4.00
2023-05-11T15:31:19.327Z,3.50
2023-05-11T15:33:46.207Z,3.90
2023-05-11T15:36:14.446Z,4.30
2023-05-11T15:38:42.485Z,4.15
2023-05-11T15:41:09.701Z,3.85
2023-05-11T15:43:36.406Z,4.20
2023-05-11T15:46:06.975Z,4.75
2023-05-11T15:48:33.740Z,4.28
2023-05-11T15:51:01.174Z,4.38
2023-05-11T15:53:27.973Z,4.70
2023-05-11T15:55:55.427Z,4.88
2023-05-11T15:58:22.812Z,3.55
2023-05-11T16:00:49.678Z,3.70
2023-05-11T16:03:16.886Z,3.35
2023-05-11T16:05:44.839Z,3.50
2023-05-11T16:08:11.960Z,3.75
2023-05-11T16:10:39.002Z,3.50
2023-05-11T16:13:05.989Z,3.90
2023-05-11T16:15:33.024Z,3.55
2023-05-11T16:18:01.557Z,4.15
2023-05-11T16:20:30.635Z,4.03
2023-05-11T16:22:58.602Z,3.35
2023-05-11T16:25:25.341Z,4.40
2023-05-11T16:27:51.952Z,3.95
2023-05-11T16:30:25.036Z,3.70
2023-05-11T16:32:54.114Z,3.92
2023-05-11T16:35:21.388Z,4.45
2023-05-11T16:37:48.647Z,4.35
2023-05-11T16:40:21.256Z,4.43
2023-05-11T16:42:48.897Z,4.13
2023-05-11T16:45:16.537Z,4.43
2023-05-11T16:47:46.820Z,4.38
2023-05-11T16:50:14.801Z,4.00
2023-05-11T16:52:42.379Z,4.20
2023-05-11T16:55:09.695Z,4.65
2023-05-11T16:57:36.446Z,3.90
2023-05-11T17:00:03.141Z,3.83
2023-05-11T17:02:29.803Z,4.38
2023-05-11T17:04:56.568Z,4.45
2023-05-11T17:07:24.704Z,3.65
2023-05-11T17:09:56.601Z,3.88
2023-05-11T17:12:23.841Z,3.63
2023-05-11T17:14:50.571Z,4.35
2023-05-11T17:17:17.288Z,3.80
2023-05-11T17:19:44.340Z,4.20
2023-05-11T17:22:11.180Z,2.90
2023-05-11T17:24:40.936Z,3.22
2023-05-11T17:27:07.629Z,3.08
2023-05-11T17:29:34.358Z,3.10
2023-05-11T17:32:02.399Z,3.13
2023-05-11T17:34:29.803Z,3.15
2023-05-11T17:36:57.956Z,3.58
2023-05-11T17:39:24.555Z,3.47
2023-05-11T17:41:53.077Z,3.15
2023-05-11T17:44:19.979Z,3.70
2023-05-11T17:46:46.691Z,3.88
2023-05-11T17:49:14.303Z,4.28
2023-05-11T17:51:41.010Z,3.70
2023-05-11T17:54:07.649Z,3.60
2023-05-11T17:56:34.709Z,3.38
2023-05-11T17:59:01.424Z,4.40
2023-05-11T18:01:28.247Z,4.07
2023-05-11T18:03:55.018Z,3.83
2023-05-11T18:06:21.981Z,4.00
2023-05-11T18:08:49.028Z,4.13
2023-05-11T18:11:15.699Z,4.55
2023-05-11T18:13:42.365Z,4.57
2023-05-11T18:16:10.161Z,4.68
2023-05-11T18:18:36.985Z,4.43
2023-05-11T18:21:07.292Z,5.28
2023-05-11T18:23:34.205Z,4.22
2023-05-11T18:26:00.853Z,4.80
2023-05-11T18:28:27.571Z,4.45
2023-05-11T18:30:54.223Z,4.95
2023-05-11T18:33:21.031Z,5.20
2023-05-11T18:35:48.041Z,4.78
2023-05-11T18:38:14.660Z,4.82
2023-05-11T18:40:41.293Z,4.93
2023-05-11T18:43:08.075Z,5.38
2023-05-11T18:45:35.111Z,4.72
2023-05-11T18:48:03.616Z,5.20
2023-05-11T18:50:30.632Z,4.93
2023-05-11T18:52:57.555Z,5.00
2023-05-11T18:55:24.914Z,5.00
2023-05-11T18:57:52.663Z,5.03
2023-05-11T19:00:20.489Z,5.25
2023-05-11T19:02:48.430Z,5.07
2023-05-11T19:05:15.407Z,5.55
2023-05-11T19:07:42.129Z,5.60
2023-05-11T19:10:09.360Z,5.70
2023-05-11T19:12:36.174Z,5.82
2023-05-11T19:15:04.525Z,5.65
2023-05-11T19:17:31.438Z,5.80
2023-05-11T19:19:58.064Z,5.75
2023-05-11T19:22:25.177Z,6.45
2023-05-11T19:24:51.800Z,6.43
2023-05-11T19:27:18.419Z,6.07
2023-05-11T19:29:45.052Z,6.22
2023-05-11T19:32:11.827Z,6.40
2023-05-11T19:34:38.457Z,6.18
2023-05-11T19:37:05.178Z,6.65
2023-05-11T19:39:31.943Z,6.63
2023-05-11T19:41:58.986Z,7.15
2023-05-11T19:44:25.831Z,6.93
2023-05-11T19:46:52.493Z,7.47
2023-05-11T19:49:19.304Z,6.65
2023-05-11T19:51:46.059Z,7.18
2023-05-11T19:54:13.965Z,7.78
2023-05-11T19:56:42.220Z,7.63
2023-05-11T19:59:08.853Z,8.35
2023-05-11T20:01:38.506Z,8.35
2023-05-11T20:04:05.257Z,8.88
2023-05-11T20:06:31.980Z,8.30
2023-05-11T20:08:58.905Z,9.07
2023-05-11T20:11:26.082Z,8.10
2023-05-11T20:13:54.825Z,8.45
2023-05-11T20:16:21.510Z,10.00
2023-05-11T20:18:49.627Z,8.75
2023-05-11T20:21:16.693Z,9.52
2023-05-11T20:23:44.106Z,9.95
2023-05-11T20:26:10.864Z,9.93
2023-05-11T20:28:40.158Z,10.95
2023-05-11T20:31:06.902Z,10.15
2023-05-11T20:36:03.196Z,9.55
2023-05-11T20:38:30.186Z,11.38
2023-05-11T20:40:57.977Z,10.57
2023-05-11T20:43:27.863Z,11.13
2023-05-11T20:45:54.636Z,10.95
2023-05-11T20:48:35.891Z,11.70
2023-05-11T20:51:06.170Z,11.88
2023-05-11T20:53:33.343Z,11.52
2023-05-11T20:56:02.601Z,12.32
2023-05-11T20:58:30.741Z,11.43
2023-05-11T21:00:57.400Z,11.82
2023-05-11T21:03:26.007Z,13.15
2023-05-11T21:05:53.374Z,12.27
2023-05-11T21:08:20.026Z,12.23
2023-05-11T21:10:46.654Z,12.88
2023-05-11T21:13:13.269Z,13.25
2023-05-11T21:15:39.955Z,13.23
2023-05-11T21:18:06.635Z,12.90
2023-05-11T21:20:33.241Z,13.27
2023-05-11T21:23:00.386Z,13.48
2023-05-11T21:25:27.134Z,12.52
2023-05-11T21:27:54.192Z,13.13
2023-05-11T21:30:21.914Z,13.85
2023-05-11T21:32:50.462Z,12.52
2023-05-11T21:35:17.578Z,12.55
2023-05-11T21:37:49.232Z,13.48
2023-05-11T21:40:17.078Z,12.60
2023-05-11T21:42:43.923Z,12.80
2023-05-11T21:45:11.858Z,10.77
2023-05-11T21:47:38.592Z,12.77
2023-05-11T21:50:06.803Z,10.07
2023-05-11T21:52:33.422Z,10.18
2023-05-11T21:55:00.869Z,8.18
2023-05-11T21:57:27.598Z,9.10
2023-05-11T21:59:54.280Z,9.40
2023-05-11T22:02:21.041Z,9.25
2023-05-11T22:04:47.722Z,8.52
2023-05-11T22:07:14.410Z,8.95
2023-05-11T22:09:40.982Z,9.52
2023-05-11T22:12:08.462Z,9.38
2023-05-11T22:14:35.286Z,9.02
2023-05-11T22:17:01.970Z,9.52
2023-05-11T22:19:29.932Z,9.27
2023-05-11T22:21:56.919Z,9.77
2023-05-11T22:24:26.906Z,10.77
2023-05-11T22:26:54.142Z,11.02
2023-05-11T22:29:21.408Z,11.75
2023-05-11T22:31:49.204Z,12.43
2023-05-11T22:34:15.893Z,12.23
2023-05-11T22:36:42.532Z,12.07
2023-05-11T22:39:11.499Z,11.00
2023-05-11T22:41:38.509Z,11.73
2023-05-11T22:44:05.644Z,12.50
2023-05-11T22:46:32.312Z,13.35
2023-05-11T22:48:58.979Z,12.75
2023-05-11T22:51:25.594Z,14.85
2023-05-11T22:53:52.134Z,13.60
2023-05-11T22:56:18.697Z,15.13
2023-05-11T22:58:45.375Z,15.35
2023-05-11T23:01:12.391Z,15.38
2023-05-11T23:03:39.218Z,15.43
2023-05-11T23:06:06.031Z,17.38
2023-05-11T23:08:32.561Z,14.55
2023-05-11T23:10:59.178Z,12.98
2023-05-11T23:13:26.265Z,16.77
2023-05-11T23:15:52.851Z,16.48
2023-05-11T23:18:19.548Z,17.00
2023-05-11T23:20:46.332Z,16.98
2023-05-11T23:23:13.359Z,13.70
2023-05-11T23:25:40.357Z,18.38
2023-05-11T23:28:13.636Z,16.45
2023-05-11T23:30:40.517Z,16.50
2023-05-11T23:33:07.324Z,17.35
2023-05-11T23:35:34.089Z,17.98
2023-05-11T23:38:00.722Z,17.48
2023-05-11T23:40:28.497Z,18.38
2023-05-11T23:42:55.904Z,17.75
2023-05-11T23:45:23.448Z,17.95
2023-05-11T23:47:50.197Z,20.20
2023-05-11T23:50:16.874Z,17.20
2023-05-11T23:52:43.636Z,19.90
2023-05-11T23:55:10.788Z,18.98
2023-05-11T23:57:37.412Z,19.60
